Time;durP1;ratioP1;P1;durP2;ratioP2;P2;SDS_P1;SDS_P2;PMS_P1;PMS_P2;Temp;Humidity;BMP_temperature;BMP_pressure;BME280_temperature;BME280_humidity;BME280_pressure;Samples;Min_cycle;Max_cycle;Signal;HPM_P1;HPM_P2
2021/12/02 00:02:11;;;;;;;38.17;34.15;;;;;;;2.23;70.20;94514.78;5076104;28;20189;-69
2021/12/02 00:04:38;;;;;;;42.35;37.85;;;;;;;2.27;70.13;94513.03;5075999;28;20205;-69
2021/12/02 00:07:06;;;;;;;44.88;40.15;;;;;;;2.23;70.04;94510.13;5075269;28;20244;-69
2021/12/02 00:09:33;;;;;;;38.75;34.60;;;;;;;2.22;70.45;94519.41;5074493;28;20228;-69
2021/12/02 00:12:00;;;;;;;33.08;29.63;;;;;;;2.25;70.41;94523.41;5075322;28;20197;-69
2021/12/02 00:14:28;;;;;;;32.28;28.80;;;;;;;2.29;70.27;94519.78;5075888;28;20184;-69
2021/12/02 00:17:06;;;;;;;46.55;41.55;;;;;;;2.25;69.45;94537.00;5075072;28;20508;-69
2021/12/02 00:22:21;;;;;;;40.75;36.45;;;;;;;2.16;70.13;94528.81;5075760;28;20201;-69
2021/12/02 00:24:55;;;;;;;34.38;30.63;;;;;;;2.24;70.27;94525.34;5075046;28;20205;-69
2021/12/02 00:27:22;;;;;;;28.77;25.88;;;;;;;2.30;70.34;94524.09;5075774;28;20228;-69
2021/12/02 00:29:49;;;;;;;27.83;24.88;;;;;;;2.35;70.26;94529.38;5075527;28;20618;-69
2021/12/02 00:32:16;;;;;;;30.30;27.13;;;;;;;2.41;69.99;94532.78;5074884;28;20209;-69
2021/12/02 00:34:46;;;;;;;28.48;25.58;;;;;;;2.42;70.20;94537.09;5075396;28;20185;-69
2021/12/02 00:37:13;;;;;;;35.88;32.10;;;;;;;2.38;70.41;94523.31;5075725;28;20268;-69
2021/12/02 00:39:40;;;;;;;38.42;34.38;;;;;;;2.27;69.60;94521.19;5074481;28;20197;-69
2021/12/02 00:42:08;;;;;;;37.38;33.47;;;;;;;2.11;69.65;94528.97;5078482;28;20248;-69
2021/12/02 00:44:37;;;;;;;37.90;33.95;;;;;;;2.05;69.83;94525.56;5095907;28;20185;-69
2021/12/02 00:47:04;;;;;;;35.28;31.77;;;;;;;2.04;70.30;94531.34;5094487;28;20222;-69
2021/12/02 00:49:31;;;;;;;31.48;28.50;;;;;;;1.97;70.23;94534.50;5095865;28;20188;-69
2021/12/02 00:52:01;;;;;;;30.88;27.70;;;;;;;1.88;70.30;94520.03;5095759;28;20277;-69
2021/12/02 00:54:28;;;;;;;32.00;28.75;;;;;;;1.84;70.31;94517.13;5095760;28;20212;-69
2021/12/02 00:56:55;;;;;;;31.90;28.38;;;;;;;1.84;70.14;94528.00;5094687;28;20204;-69
2021/12/02 00:59:23;;;;;;;30.10;27.10;;;;;;;1.84;70.32;94516.31;5095773;28;20184;-69
2021/12/02 01:01:51;;;;;;;30.30;27.30;;;;;;;1.82;70.42;94530.25;5094336;28;20211;-69
2021/12/02 01:04:22;;;;;;;28.50;25.48;;;;;;;1.91;70.86;94535.72;5095732;28;20199;-69
2021/12/02 01:06:49;;;;;;;29.73;26.75;;;;;;;1.91;70.52;94538.44;5094548;28;20206;-69
2021/12/02 01:09:17;;;;;;;28.13;25.25;;;;;;;1.90;70.75;94536.84;5094828;28;20205;-69
2021/12/02 01:11:45;;;;;;;29.35;26.40;;;;;;;1.91;70.51;94530.28;5095188;28;20184;-69
2021/12/02 01:14:12;;;;;;;28.45;25.55;;;;;;;1.86;70.64;94520.34;5094163;28;20648;-69
2021/12/02 01:16:39;;;;;;;28.67;25.67;;;;;;;1.83;70.08;94510.09;5095423;28;20180;-69
2021/12/02 01:19:07;;;;;;;28.15;25.27;;;;;;;1.79;69.88;94524.63;5094349;28;20203;-69
2021/12/02 01:21:38;;;;;;;28.17;25.25;;;;;;;1.72;70.14;94532.41;5094333;28;20210;-69
2021/12/02 01:24:07;;;;;;;29.80;26.67;;;;;;;1.57;69.70;94522.72;5095481;28;20200;-69
2021/12/02 01:26:36;;;;;;;32.80;29.35;;;;;;;1.50;70.19;94523.16;5095252;28;20181;-69
2021/12/02 01:29:04;;;;;;;51.58;43.60;;;;;;;1.54;70.67;94543.16;5095139;28;20212;-69
2021/12/02 01:31:32;;;;;;;54.42;44.25;;;;;;;1.64;70.87;94537.47;5094789;28;20188;-69
2021/12/02 01:34:02;;;;;;;48.58;41.50;;;;;;;1.72;71.00;94522.34;5093992;28;20193;-69
2021/12/02 01:36:33;;;;;;;51.97;43.65;;;;;;;1.78;71.29;94536.59;5095217;28;20199;-69
2021/12/02 01:39:00;;;;;;;48.65;41.58;;;;;;;1.81;70.99;94539.50;5094132;28;20299;-69
2021/12/02 01:41:27;;;;;;;48.75;40.92;;;;;;;1.84;71.00;94536.16;5094255;28;20192;-69
2021/12/02 01:43:55;;;;;;;46.45;40.67;;;;;;;1.86;71.19;94525.00;5113430;28;20249;-69
2021/12/02 01:46:24;;;;;;;42.50;37.60;;;;;;;1.92;70.88;94529.16;5097507;28;20210;-69
2021/12/02 01:49:00;;;;;;;38.13;34.03;;;;;;;1.95;70.82;94530.47;5115274;28;20203;-69
2021/12/02 01:51:28;;;;;;;37.70;33.70;;;;;;;1.92;71.03;94530.00;5098072;28;20199;-69
2021/12/02 01:54:01;;;;;;;40.00;33.72;;;;;;;1.92;70.77;94527.28;5097119;28;20200;-69
2021/12/02 01:56:28;;;;;;;35.85;32.05;;;;;;;1.87;70.85;94511.06;5097138;28;20203;-69
2021/12/02 02:01:48;;;;;;;32.47;29.13;;;;;;;1.92;71.10;94496.53;5115128;28;20176;-68
2021/12/02 02:04:17;;;;;;;33.28;29.77;;;;;;;1.86;71.05;94487.72;5115040;28;20268;-69
2021/12/02 02:06:54;;;;;;;31.70;28.40;;;;;;;1.85;71.03;94485.28;5097256;28;20211;-69
2021/12/02 02:09:21;;;;;;;31.15;27.88;;;;;;;1.87;71.51;94492.03;5114823;28;20218;-69
2021/12/02 02:11:47;;;;;;;31.55;28.33;;;;;;;1.89;71.22;94489.00;5115025;28;20180;-69
2021/12/02 02:14:16;;;;;;;30.02;26.92;;;;;;;1.88;71.27;94490.91;5097357;28;20600;-69
2021/12/02 02:16:42;;;;;;;28.02;25.23;;;;;;;1.92;71.06;94481.03;5097214;28;20200;-69
2021/12/02 02:19:12;;;;;;;28.05;25.10;;;;;;;1.93;71.46;94457.34;5115099;28;20184;-69
2021/12/02 02:21:40;;;;;;;26.15;23.50;;;;;;;1.92;71.06;94472.06;5114870;28;20188;-69
2021/12/02 02:24:11;;;;;;;25.60;22.88;;;;;;;1.92;71.20;94482.94;5096911;28;20199;-69
2021/12/02 02:26:38;;;;;;;24.23;21.67;;;;;;;1.93;71.26;94485.34;5115081;28;20184;-69
2021/12/02 02:29:07;;;;;;;24.38;21.77;;;;;;;1.92;70.65;94482.94;5114847;28;20218;-69
2021/12/02 02:31:35;;;;;;;25.73;23.05;;;;;;;1.90;70.95;94496.84;5098286;28;20200;-69
2021/12/02 02:34:02;;;;;;;25.88;23.38;;;;;;;1.88;70.92;94501.78;5118469;28;20195;-69
2021/12/02 02:36:30;;;;;;;30.00;26.90;;;;;;;1.93;70.94;94492.72;5100968;28;20207;-69
2021/12/02 02:38:59;;;;;;;32.13;28.48;;;;;;;1.86;71.29;94503.22;5118238;28;20188;-69
2021/12/02 02:41:29;;;;;;;30.42;27.27;;;;;;;1.88;71.17;94485.47;5101059;28;20196;-69
2021/12/02 02:43:59;;;;;;;30.70;27.40;;;;;;;1.91;71.40;94490.28;5100516;28;20280;-69
2021/12/02 02:46:28;;;;;;;29.50;26.50;;;;;;;1.90;71.15;94501.50;5100730;28;20196;-69
2021/12/02 02:48:56;;;;;;;27.15;24.25;;;;;;;1.87;71.19;94488.50;5118437;28;20204;-69
2021/12/02 02:51:23;;;;;;;27.52;24.60;;;;;;;1.91;70.93;94495.72;5118317;28;20195;-69
2021/12/02 02:53:52;;;;;;;27.17;24.48;;;;;;;1.86;71.01;94500.50;5118415;28;20176;-69
2021/12/02 02:56:21;;;;;;;28.98;26.02;;;;;;;1.82;71.10;94504.97;5100448;28;20199;-69
2021/12/02 02:58:58;;;;;;;27.80;24.88;;;;;;;1.78;71.53;94490.38;5117852;28;20184;-68
2021/12/02 03:01:34;;;;;;;28.63;25.73;;;;;;;1.77;71.76;94499.66;5118421;28;20198;-68
2021/12/02 03:04:06;;;;;;;27.60;24.73;;;;;;;1.81;71.51;94478.88;5118282;28;20197;-68
2021/12/02 03:06:38;;;;;;;26.10;23.27;;;;;;;1.91;71.66;94479.41;5100222;28;20295;-68
2021/12/02 03:09:08;;;;;;;25.77;23.08;;;;;;;1.95;71.45;94481.50;5100015;28;20230;-68
2021/12/02 03:11:44;;;;;;;23.15;20.77;;;;;;;1.98;71.16;94465.38;5100413;28;20248;-68
2021/12/02 03:14:15;;;;;;;23.40;21.05;;;;;;;2.03;71.04;94470.66;5100435;28;20290;-68
2021/12/02 03:16:44;;;;;;;23.00;20.70;;;;;;;2.05;71.25;94471.16;5117603;28;20175;-67
2021/12/02 03:19:12;;;;;;;22.90;20.70;;;;;;;2.08;70.92;94456.13;5117916;28;20261;-67
2021/12/02 03:21:39;;;;;;;24.23;21.13;;;;;;;2.08;70.54;94467.03;5099921;28;20203;-67
2021/12/02 03:24:07;;;;;;;24.00;21.55;;;;;;;2.02;70.72;94482.66;5099711;28;20206;-67
2021/12/02 03:26:36;;;;;;;24.30;21.83;;;;;;;1.99;70.60;94479.75;5117713;28;20635;-67
2021/12/02 03:29:03;;;;;;;22.80;20.60;;;;;;;1.97;71.06;94480.09;5117326;28;20250;-67
2021/12/02 03:31:30;;;;;;;23.58;21.15;;;;;;;1.98;70.99;94480.88;5117601;28;20196;-68
2021/12/02 03:33:58;;;;;;;22.67;20.38;;;;;;;2.01;71.06;94481.06;5099726;28;20278;-67
2021/12/02 03:36:24;;;;;;;22.80;20.45;;;;;;;1.99;71.12;94471.59;5117437;28;20198;-69
2021/12/02 03:38:53;;;;;;;21.55;19.45;;;;;;;1.99;70.66;94466.97;5099239;28;20200;-69
2021/12/02 03:41:20;;;;;;;21.42;19.23;;;;;;;1.91;71.03;94462.28;5099563;28;20528;-69
2021/12/02 03:43:49;;;;;;;22.42;20.15;;;;;;;1.87;71.23;94462.13;5099696;28;20562;-69
2021/12/02 03:46:19;;;;;;;21.77;19.58;;;;;;;1.85;71.30;94474.41;5099619;28;20210;-69
2021/12/02 03:48:46;;;;;;;22.92;20.70;;;;;;;1.79;71.29;94465.59;5099384;28;20219;-68
2021/12/02 03:51:13;;;;;;;22.90;20.70;;;;;;;1.73;71.45;94475.00;5117285;28;20172;-69
2021/12/02 03:53:40;;;;;;;23.35;21.00;;;;;;;1.72;71.46;94475.31;5117269;28;20195;-69
2021/12/02 03:56:09;;;;;;;22.73;20.48;;;;;;;1.71;71.70;94470.97;5117188;28;20184;-69
2021/12/02 03:58:37;;;;;;;22.35;20.25;;;;;;;1.71;71.79;94466.38;5099300;28;20195;-69
2021/12/02 04:01:05;;;;;;;21.80;19.60;;;;;;;1.72;71.47;94459.81;5099121;28;20200;-68
2021/12/02 04:03:33;;;;;;;22.02;19.85;;;;;;;1.71;71.79;94455.50;5099658;28;20199;-70
2021/12/02 04:06:00;;;;;;;23.00;20.70;;;;;;;1.65;71.63;94456.72;5098994;28;20199;-70
2021/12/02 04:08:31;;;;;;;31.20;28.02;;;;;;;1.55;70.99;94463.22;5116859;28;20218;-69
2021/12/02 04:11:12;;;;;;;35.42;31.63;;;;;;;1.46;71.55;94456.16;5098874;28;20252;-69
2021/12/02 04:13:44;;;;;;;36.47;32.85;;;;;;;1.47;71.37;94455.81;5116547;28;20180;-69
2021/12/02 04:16:17;;;;;;;40.72;36.53;;;;;;;1.44;71.61;94461.88;5098846;28;20361;-69
2021/12/02 04:18:43;;;;;;;32.17;28.90;;;;;;;1.48;72.18;94462.06;5098809;28;20206;-68
2021/12/02 04:21:10;;;;;;;41.08;36.92;;;;;;;1.52;72.21;94457.59;5116662;28;20230;-68
2021/12/02 04:23:37;;;;;;;33.90;30.50;;;;;;;1.53;72.33;94470.09;5098782;28;20210;-68
2021/12/02 04:26:04;;;;;;;34.00;30.60;;;;;;;1.52;72.25;94471.19;5116172;28;20206;-69
2021/12/02 04:28:31;;;;;;;29.73;26.63;;;;;;;1.53;72.01;94454.59;5116147;28;20204;-69
2021/12/02 04:30:58;;;;;;;28.10;25.20;;;;;;;1.64;72.23;94463.28;5098558;28;20191;-69
2021/12/02 04:33:28;;;;;;;27.80;24.90;;;;;;;1.62;71.71;94450.00;5098524;28;20519;-68
2021/12/02 04:35:55;;;;;;;30.40;27.27;;;;;;;1.59;71.97;94447.88;5098609;28;20191;-68
2021/12/02 04:38:22;;;;;;;25.52;23.00;;;;;;;1.56;71.87;94440.38;5098430;28;20203;-70
2021/12/02 04:40:49;;;;;;;28.30;25.33;;;;;;;1.54;71.65;94437.16;5116243;28;20195;-68
2021/12/02 04:43:15;;;;;;;42.75;38.22;;;;;;;1.47;71.30;94450.38;5116108;28;20568;-68
2021/12/02 04:45:42;;;;;;;33.53;30.10;;;;;;;1.40;71.64;94439.94;5116228;28;20185;-68
2021/12/02 04:48:09;;;;;;;38.65;34.95;;;;;;;1.35;71.87;94456.38;5101832;28;20226;-67
2021/12/02 04:50:37;;;;;;;23.40;21.08;;;;;;;1.38;71.81;94441.34;5095477;28;20191;-68
2021/12/02 04:53:04;;;;;;;24.17;21.88;;;;;;;1.37;72.49;94443.28;5094677;28;20601;-68
2021/12/02 04:55:31;;;;;;;21.27;19.17;;;;;;;1.39;72.40;94438.34;5095441;28;20172;-67
2021/12/02 04:57:58;;;;;;;23.98;21.52;;;;;;;1.42;71.98;94435.03;5077901;28;20559;-68
2021/12/02 05:00:25;;;;;;;35.20;31.67;;;;;;;1.40;71.37;94444.59;5095673;28;20195;-68
2021/12/02 05:02:52;;;;;;;35.63;32.03;;;;;;;1.34;71.43;94435.75;5077808;28;20218;-67
2021/12/02 05:05:18;;;;;;;28.42;25.58;;;;;;;1.36;71.48;94436.25;5077483;28;20604;-67
2021/12/02 05:07:48;;;;;;;32.87;29.67;;;;;;;1.34;71.56;94430.31;5077526;28;20433;-68
2021/12/02 05:10:15;;;;;;;27.58;24.88;;;;;;;1.35;72.09;94431.94;5095400;28;20204;-68
2021/12/02 05:12:42;;;;;;;22.95;20.60;;;;;;;1.41;72.48;94411.66;5077676;28;20197;-68
2021/12/02 05:15:10;;;;;;;21.40;19.40;;;;;;;1.48;72.75;94416.66;5095400;28;20180;-68
2021/12/02 05:17:36;;;;;;;22.63;20.25;;;;;;;1.51;72.74;94417.94;5077553;28;20208;-68
2021/12/02 05:20:04;;;;;;;25.20;22.77;;;;;;;1.53;72.36;94410.31;5094290;28;20418;-68
2021/12/02 05:22:31;;;;;;;25.63;23.33;;;;;;;1.52;72.40;94406.75;5093390;28;20414;-68
2021/12/02 05:24:59;;;;;;;23.88;21.52;;;;;;;1.52;72.46;94423.06;5094226;28;20204;-68
2021/12/02 05:27:26;;;;;;;22.65;20.33;;;;;;;1.53;72.27;94423.91;5095229;28;20200;-68
2021/12/02 05:29:53;;;;;;;21.95;19.77;;;;;;;1.56;72.08;94415.91;5095290;28;20650;-68
2021/12/02 05:32:20;;;;;;;25.65;23.25;;;;;;;1.57;71.95;94422.94;5077526;28;20235;-68
2021/12/02 05:34:48;;;;;;;24.33;21.88;;;;;;;1.55;71.67;94405.34;5077369;28;20199;-68
2021/12/02 05:37:15;;;;;;;23.52;21.23;;;;;;;1.53;71.88;94413.03;5077049;28;20193;-68
2021/12/02 05:39:42;;;;;;;25.80;23.25;;;;;;;1.49;71.64;94414.72;5095157;28;20184;-68
2021/12/02 05:42:10;;;;;;;27.77;25.23;;;;;;;1.54;71.62;94404.53;5093872;28;20235;-68
2021/12/02 05:44:37;;;;;;;25.52;23.13;;;;;;;1.52;71.25;94431.22;5094429;28;20208;-68
2021/12/02 05:47:04;;;;;;;22.42;20.23;;;;;;;1.54;71.37;94409.97;5094704;28;20196;-68
2021/12/02 05:49:31;;;;;;;27.33;24.77;;;;;;;1.57;70.85;94422.16;5094754;28;20208;-68
2021/12/02 05:51:58;;;;;;;43.47;39.20;;;;;;;1.44;70.69;94430.06;5094706;28;20203;-68
2021/12/02 05:54:25;;;;;;;42.80;38.42;;;;;;;1.40;70.94;94422.84;5077376;28;20192;-68
2021/12/02 05:56:52;;;;;;;51.08;45.97;;;;;;;1.38;71.55;94423.16;5077433;28;20204;-68
2021/12/02 05:59:20;;;;;;;53.33;47.95;;;;;;;1.35;71.64;94431.13;5077490;28;20195;-68
2021/12/02 06:01:47;;;;;;;60.80;54.85;;;;;;;1.35;71.67;94423.00;5094177;28;20211;-68
2021/12/02 06:04:14;;;;;;;78.43;70.90;;;;;;;1.30;71.57;94434.75;5095089;28;20207;-69
2021/12/02 06:06:41;;;;;;;80.70;72.97;;;;;;;1.23;71.96;94430.88;5078595;28;20196;-69
2021/12/02 06:09:09;;;;;;;86.88;78.65;;;;;;;1.23;72.03;94434.41;5098523;28;20311;-68
2021/12/02 06:11:35;;;;;;;83.10;75.32;;;;;;;1.30;72.04;94434.75;5098547;28;20224;-68
2021/12/02 06:14:03;;;;;;;102.03;92.72;;;;;;;1.31;72.29;94419.28;5098893;28;20215;-69
2021/12/02 06:16:31;;;;;;;110.93;101.13;;;;;;;1.31;72.25;94427.44;5081779;28;20249;-68
2021/12/02 06:18:58;;;;;;;100.70;91.60;;;;;;;1.34;72.33;94432.22;5097800;28;20215;-67
2021/12/02 06:21:25;;;;;;;91.70;82.93;;;;;;;1.37;72.10;94437.06;5099062;28;20196;-67
2021/12/02 06:23:52;;;;;;;86.95;78.72;;;;;;;1.39;72.05;94440.28;5080741;28;20208;-67
2021/12/02 06:26:18;;;;;;;91.07;82.65;;;;;;;1.43;72.30;94430.38;5098716;28;20184;-67
2021/12/02 06:28:45;;;;;;;97.40;88.60;;;;;;;1.41;72.11;94438.81;5080748;28;20204;-67
2021/12/02 06:31:12;;;;;;;93.60;85.20;;;;;;;1.46;72.29;94451.50;5098836;28;20193;-66
2021/12/02 06:33:40;;;;;;;87.57;79.70;;;;;;;1.49;71.98;94440.03;5097489;28;20200;-66
2021/12/02 06:36:07;;;;;;;88.30;80.30;;;;;;;1.52;72.33;94444.00;5097456;28;20201;-66
2021/12/02 06:38:34;;;;;;;93.88;85.63;;;;;;;1.56;72.23;94440.38;5098249;28;20211;-66
2021/12/02 06:41:01;;;;;;;95.07;86.65;;;;;;;1.57;72.14;94441.19;5097897;28;20193;-67
2021/12/02 06:43:28;;;;;;;87.05;78.97;;;;;;;1.61;72.24;94445.69;5098313;28;20237;-67
2021/12/02 06:45:54;;;;;;;92.22;83.88;;;;;;;1.62;72.16;94438.31;5097853;28;20580;-67
2021/12/02 06:48:22;;;;;;;87.82;80.00;;;;;;;1.65;72.23;94441.22;5098209;28;20192;-67
2021/12/02 06:50:50;;;;;;;76.00;68.90;;;;;;;1.73;72.00;94436.13;5097882;28;20210;-67
2021/12/02 06:53:17;;;;;;;67.15;60.67;;;;;;;1.83;71.73;94444.81;5080944;28;20200;-67
2021/12/02 06:55:44;;;;;;;63.03;56.88;;;;;;;1.97;71.85;94439.28;5098099;28;20206;-68
2021/12/02 06:58:11;;;;;;;58.03;52.53;;;;;;;2.06;71.10;94436.59;5097953;28;20200;-67
2021/12/02 07:00:38;;;;;;;54.92;49.63;;;;;;;2.07;71.20;94441.75;5097963;28;20185;-67
2021/12/02 07:03:05;;;;;;;55.00;49.75;;;;;;;2.11;71.26;94448.16;5098004;28;20188;-68
2021/12/02 07:05:33;;;;;;;53.00;48.00;;;;;;;2.16;71.27;94431.66;5097743;28;20191;-67
2021/12/02 07:08:01;;;;;;;54.10;49.10;;;;;;;2.21;71.14;94435.38;5097750;28;20191;-67
2021/12/02 07:10:31;;;;;;;52.20;47.33;;;;;;;2.25;70.97;94437.16;5097563;28;20291;-67
2021/12/02 07:12:58;;;;;;;50.90;46.08;;;;;;;2.34;71.04;94426.28;5097600;28;20244;-66
2021/12/02 07:15:29;;;;;;;51.50;46.42;;;;;;;2.38;70.89;94430.78;5097260;28;20189;-66
2021/12/02 07:17:57;;;;;;;54.10;49.00;;;;;;;2.41;70.75;94435.59;5097232;28;20214;-67
2021/12/02 07:20:26;;;;;;;63.83;57.88;;;;;;;2.34;70.99;94431.72;5097689;28;20296;-68
2021/12/02 07:22:53;;;;;;;62.10;56.25;;;;;;;2.34;71.03;94429.00;5079678;28;20195;-68
2021/12/02 07:25:21;;;;;;;56.17;50.95;;;;;;;2.53;71.12;94426.78;5097522;28;20207;-69
2021/12/02 07:27:48;;;;;;;51.03;46.17;;;;;;;2.74;70.60;94431.66;5096891;28;20200;-70
2021/12/02 07:30:15;;;;;;;58.65;53.22;;;;;;;2.82;70.24;94420.75;5097231;28;20212;-70
2021/12/02 07:32:43;;;;;;;57.78;52.25;;;;;;;2.93;70.47;94423.16;5096015;28;20608;-70
2021/12/02 07:35:11;;;;;;;55.30;50.30;;;;;;;3.01;69.64;94425.06;5097189;28;20180;-70
2021/12/02 07:37:41;;;;;;;51.28;46.40;;;;;;;3.11;69.54;94422.84;5097144;28;20177;-70
2021/12/02 07:40:09;;;;;;;49.92;45.22;;;;;;;3.28;68.83;94421.22;5097035;28;20194;-70
2021/12/02 07:42:37;;;;;;;49.03;44.25;;;;;;;3.42;68.44;94421.06;5079288;28;20247;-70
2021/12/02 07:45:05;;;;;;;50.40;45.90;;;;;;;3.58;68.49;94425.66;5096120;28;20196;-70
2021/12/02 07:47:33;;;;;;;52.40;47.58;;;;;;;3.71;67.97;94417.63;5097116;28;20187;-69
2021/12/02 07:50:00;;;;;;;57.75;51.97;;;;;;;3.86;68.42;94422.56;5096253;28;20216;-69
2021/12/02 07:52:27;;;;;;;58.95;53.25;;;;;;;4.02;67.69;94429.06;5096925;28;20211;-69
2021/12/02 07:54:56;;;;;;;59.58;53.70;;;;;;;4.12;67.23;94430.63;5096697;28;20185;-67
2021/12/02 07:57:23;;;;;;;56.60;51.08;;;;;;;4.24;67.37;94432.66;5096772;28;20222;-68
2021/12/02 07:59:51;;;;;;;55.13;49.63;;;;;;;4.44;66.60;94431.13;5096592;28;20188;-68
2021/12/02 08:02:18;;;;;;;48.03;43.20;;;;;;;4.59;66.21;94423.16;5096038;28;20192;-68
2021/12/02 08:04:45;;;;;;;47.35;42.80;;;;;;;4.79;65.86;94432.53;5096488;28;20200;-69
2021/12/02 08:07:12;;;;;;;37.38;33.75;;;;;;;4.96;65.19;94428.88;5096963;28;20189;-69
2021/12/02 08:09:39;;;;;;;25.45;22.92;;;;;;;5.06;62.81;94414.81;5095813;28;20219;-69
2021/12/02 08:12:06;;;;;;;21.77;19.67;;;;;;;5.06;62.09;94430.41;5095572;28;20192;-69
2021/12/02 08:14:33;;;;;;;25.20;22.55;;;;;;;5.16;62.62;94434.69;5079006;28;20203;-69
2021/12/02 08:17:01;;;;;;;31.15;27.95;;;;;;;5.40;63.46;94429.31;5096576;28;20180;-68
2021/12/02 08:19:28;;;;;;;27.42;24.65;;;;;;;5.62;62.03;94414.47;5097014;28;20181;-68
2021/12/02 08:21:55;;;;;;;18.40;16.60;;;;;;;5.71;61.03;94422.59;5096383;28;20184;-69
2021/12/02 08:24:23;;;;;;;20.17;18.13;;;;;;;5.88;60.16;94438.84;5096832;28;20192;-68
2021/12/02 08:26:51;;;;;;;21.48;19.25;;;;;;;5.91;59.72;94424.44;5096358;28;20636;-67
2021/12/02 08:29:17;;;;;;;21.30;19.20;;;;;;;6.01;59.90;94437.75;5077793;28;20207;-68
2021/12/02 08:31:44;;;;;;;21.75;19.60;;;;;;;6.06;59.20;94406.59;5095793;28;20608;-68
2021/12/02 08:34:13;;;;;;;18.67;16.80;;;;;;;6.15;59.06;94417.47;5096391;28;20275;-68
2021/12/02 08:36:46;;;;;;;16.17;14.52;;;;;;;6.30;58.92;94405.84;5096129;28;20210;-68
2021/12/02 08:39:17;;;;;;;12.80;11.60;;;;;;;6.41;58.61;94403.44;5095205;28;20188;-68
2021/12/02 08:41:47;;;;;;;13.85;12.40;;;;;;;6.48;58.24;94393.50;5096372;28;20210;-68
2021/12/02 08:44:14;;;;;;;16.25;14.65;;;;;;;6.58;57.48;94405.16;5078209;28;20322;-68
2021/12/02 08:46:41;;;;;;;18.20;16.38;;;;;;;6.75;57.64;94411.19;5095678;28;20181;-68
2021/12/02 08:49:08;;;;;;;21.38;19.15;;;;;;;6.82;57.16;94394.16;5094701;28;20195;-68
2021/12/02 08:51:36;;;;;;;21.90;19.70;;;;;;;6.82;55.28;94407.06;5094992;28;20220;-68
2021/12/02 08:54:03;;;;;;;21.98;19.77;;;;;;;6.86;56.23;94391.50;5095959;28;20184;-68
2021/12/02 08:56:30;;;;;;;20.40;18.42;;;;;;;6.84;56.24;94396.56;5078147;28;20287;-69
2021/12/02 08:58:58;;;;;;;19.08;17.17;;;;;;;7.02;56.65;94386.13;5095597;28;20195;-69
2021/12/02 09:01:27;;;;;;;19.35;17.42;;;;;;;7.19;56.39;94381.16;5096163;28;20196;-69
2021/12/02 09:03:54;;;;;;;22.63;20.23;;;;;;;7.13;55.16;94374.31;5077746;28;20232;-69
2021/12/02 09:06:22;;;;;;;21.13;19.20;;;;;;;7.26;54.79;94387.97;5095136;28;20535;-69
2021/12/02 09:08:51;;;;;;;22.80;20.55;;;;;;;7.31;54.58;94368.56;5095841;28;20185;-69
2021/12/02 09:11:18;;;;;;;23.80;21.42;;;;;;;7.42;54.79;94370.44;5095496;28;20200;-68
2021/12/02 09:13:45;;;;;;;21.40;19.08;;;;;;;7.59;54.57;94368.50;5095651;28;20191;-68
2021/12/02 09:16:13;;;;;;;18.05;16.23;;;;;;;7.66;54.01;94366.78;5095531;28;20204;-68
2021/12/02 09:18:40;;;;;;;18.73;16.98;;;;;;;7.82;53.64;94368.75;5095414;28;20181;-68
2021/12/02 09:21:07;;;;;;;18.92;17.10;;;;;;;8.04;53.90;94365.41;5077434;28;20196;-69
2021/12/02 09:23:34;;;;;;;19.15;17.35;;;;;;;8.16;52.52;94370.00;5077396;28;20205;-69
2021/12/02 09:26:02;;;;;;;18.85;17.15;;;;;;;8.15;52.34;94347.25;5077727;28;20200;-68
2021/12/02 09:28:29;;;;;;;18.35;16.45;;;;;;;8.24;52.11;94357.25;5094936;28;20188;-69
2021/12/02 09:30:56;;;;;;;17.58;15.75;;;;;;;8.44;52.51;94340.50;5095201;28;20224;-69
2021/12/02 09:33:23;;;;;;;18.63;16.67;;;;;;;8.48;50.54;94356.28;5095553;28;20198;-69
2021/12/02 09:35:49;;;;;;;16.88;15.27;;;;;;;8.55;50.60;94342.72;5077563;28;20644;-68
2021/12/02 09:38:16;;;;;;;16.45;14.93;;;;;;;8.62;50.43;94351.91;5095072;28;20196;-69
2021/12/02 09:40:44;;;;;;;18.23;16.52;;;;;;;8.74;50.54;94350.22;5096030;28;20181;-69
2021/12/02 09:43:14;;;;;;;18.45;16.52;;;;;;;8.84;50.27;94349.66;5099561;28;20323;-69
2021/12/02 09:45:42;;;;;;;16.02;14.45;;;;;;;8.80;50.26;94341.31;5099393;28;20226;-69
2021/12/02 09:48:09;;;;;;;15.55;14.15;;;;;;;8.96;49.39;94338.50;5098481;28;20184;-69
2021/12/02 09:50:38;;;;;;;15.38;13.75;;;;;;;8.99;50.32;94331.50;5081401;28;20216;-69
2021/12/02 09:53:09;;;;;;;19.08;16.35;;;;;;;9.12;50.00;94324.72;5081427;28;20196;-69
2021/12/02 09:55:43;;;;;;;17.25;15.45;;;;;;;9.36;49.35;94331.88;5081663;28;20385;-69
2021/12/02 09:58:18;;;;;;;15.23;13.82;;;;;;;9.57;48.59;94320.47;5098289;28;20199;-69
2021/12/02 10:00:48;;;;;;;17.05;15.45;;;;;;;9.56;48.56;94324.41;5081252;28;20202;-68
2021/12/02 10:03:24;;;;;;;16.08;14.48;;;;;;;9.63;48.21;94319.81;5081421;28;20253;-69
2021/12/02 10:06:03;;;;;;;17.25;15.45;;;;;;;9.71;48.21;94306.19;5081226;28;20192;-69
2021/12/02 10:08:33;;;;;;;16.33;14.80;;;;;;;9.68;47.74;94301.41;5098625;28;20184;-69
2021/12/02 10:11:02;;;;;;;15.85;14.32;;;;;;;9.63;48.19;94297.81;5098477;28;20230;-69
2021/12/02 10:13:42;;;;;;;17.80;14.68;;;;;;;9.71;48.12;94289.66;5098424;28;20192;-69
2021/12/02 10:16:16;;;;;;;16.40;14.70;;;;;;;9.72;48.30;94294.78;5098692;28;20195;-68
2021/12/02 10:21:35;;;;;;;17.08;14.05;;;;;;;9.79;47.63;94289.41;5082032;28;20527;-68
2021/12/02 10:24:04;;;;;;;14.90;13.50;;;;;;;9.64;47.91;94288.38;5080754;28;20204;-68
2021/12/02 10:26:35;;;;;;;14.45;12.88;;;;;;;9.53;47.67;94278.31;5098553;28;20193;-68
2021/12/02 10:29:13;;;;;;;14.88;13.38;;;;;;;9.36;47.97;94283.13;5097308;28;20206;-68
2021/12/02 10:31:46;;;;;;;16.23;14.63;;;;;;;9.21;48.99;94286.75;5098741;28;20212;-68
2021/12/02 10:34:15;;;;;;;17.13;15.50;;;;;;;9.04;49.17;94284.44;5098544;28;20250;-68
2021/12/02 10:36:44;;;;;;;17.33;14.70;;;;;;;8.81;49.01;94276.13;5098330;28;20196;-68
2021/12/02 10:39:13;;;;;;;17.42;13.95;;;;;;;8.66;49.76;94270.31;5098655;28;20196;-68
2021/12/02 10:41:43;;;;;;;15.52;13.82;;;;;;;8.57;50.44;94269.75;5097824;28;20192;-68
2021/12/02 10:44:15;;;;;;;14.02;12.73;;;;;;;8.51;50.33;94256.63;5098401;28;20240;-69
2021/12/02 10:47:01;;;;;;;14.20;12.75;;;;;;;8.35;50.69;94251.13;5098712;28;20188;-68
2021/12/02 10:49:29;;;;;;;15.88;13.07;;;;;;;8.26;50.97;94234.06;5080657;28;20273;-68
2021/12/02 10:51:57;;;;;;;14.70;12.88;;;;;;;8.22;51.60;94238.69;5098000;28;20223;-69
2021/12/02 10:54:26;;;;;;;14.38;12.65;;;;;;;8.27;52.02;94241.16;5098181;28;20200;-69
2021/12/02 10:56:55;;;;;;;13.45;12.05;;;;;;;8.43;51.75;94228.22;5097470;28;20287;-68
2021/12/02 10:59:48;;;;;;;14.57;13.18;;;;;;;8.72;51.15;94245.31;5080832;28;20200;-68
2021/12/02 11:02:20;;;;;;;14.90;13.40;;;;;;;9.09;50.66;94237.41;5097966;28;20192;-69
2021/12/02 11:04:49;;;;;;;14.88;13.38;;;;;;;9.42;49.68;94236.06;5097656;28;20185;-69
2021/12/02 11:07:21;;;;;;;15.40;13.77;;;;;;;9.76;48.13;94213.03;5098019;28;20215;-67
2021/12/02 11:09:50;;;;;;;15.13;13.45;;;;;;;10.18;47.48;94205.81;5096786;28;20203;-68
2021/12/02 11:12:20;;;;;;;15.65;13.02;;;;;;;10.56;46.05;94204.81;5079609;28;20231;-68
2021/12/02 11:15:12;;;;;;;14.65;13.25;;;;;;;10.73;45.74;94200.69;5097753;28;20189;-69
2021/12/02 11:17:43;;;;;;;14.82;13.35;;;;;;;10.80;45.03;94200.78;5097714;28;20199;-68
2021/12/02 11:20:11;;;;;;;14.07;12.63;;;;;;;11.07;44.76;94202.31;5097696;28;20184;-68
2021/12/02 11:22:39;;;;;;;13.50;12.13;;;;;;;11.39;44.08;94196.31;5097469;28;20231;-69
2021/12/02 11:25:10;;;;;;;16.42;13.00;;;;;;;11.61;43.90;94194.56;5079878;28;20206;-68
2021/12/02 11:27:39;;;;;;;14.52;12.98;;;;;;;11.64;43.28;94198.53;5097725;28;20199;-68
2021/12/02 11:30:11;;;;;;;15.23;12.40;;;;;;;11.71;42.82;94198.59;5096243;28;20207;-68
2021/12/02 11:32:44;;;;;;;14.10;12.27;;;;;;;11.87;43.00;94193.63;5096753;28;20192;-69
2021/12/02 11:35:17;;;;;;;13.55;11.52;;;;;;;12.08;42.33;94179.19;5096564;28;20204;-69
2021/12/02 11:37:46;;;;;;;14.00;11.93;;;;;;;12.16;42.63;94171.72;5097117;28;20195;-69
2021/12/02 11:40:16;;;;;;;13.52;11.68;;;;;;;12.72;41.06;94181.53;5097345;28;20203;-69